
Distance (Route):
Temperature : -52.7°C
Humidity : 9.8%
Pressure : 0hPa| Receiver | Frames | First received | Last received |
|---|---|---|---|
| LZ4TU-5 | 32 | 2026-09-02 23:16:15 | 2026-09-02 23:49:42 |
| Receiver | Date | Latitude | Longitude | Direction | Speed | Altitude | Climb | Temperature | Humidity | Pressure | Voltage | Killtimer | Uptime | BKT | XDATA |
|---|---|---|---|---|---|---|---|---|---|---|---|---|---|---|---|
| LZ4TU-5 | 2026-09-02 23:49:42 | 44.28130 | 22.86338 | 71° | 89km/h | 12629m | 9.6m/s | -52.7°C | 9.8% | 0hPa | 0V | 00:00:00 | 00:00:00 | 00:00:00 | |
| LZ4TU-5 | 2026-09-02 23:49:37 | 44.28098 | 22.86181 | 78° | 111km/h | 12592m | 7.6m/s | -52.5°C | 10.5% | 0hPa | 0V | 00:00:00 | 00:00:00 | 00:00:00 | |
| LZ4TU-5 | 2026-09-02 23:49:31 | 44.28052 | 22.85984 | 69° | 80km/h | 12553m | 6.6m/s | -52.5°C | 11.5% | 0hPa | 0V | 00:00:00 | 00:00:00 | 00:00:00 | |
| LZ4TU-5 | 2026-09-02 23:49:27 | 44.28024 | 22.85857 | 80° | 119km/h | 12532m | 4.8m/s | -52.8°C | 12.2% | 0hPa | 0V | 00:00:00 | 00:00:00 | 00:00:00 | |
| LZ4TU-5 | 2026-09-02 23:47:54 | 44.26763 | 22.82495 | 71° | 119km/h | 11939m | 4.8m/s | -54.7°C | 29.5% | 0hPa | 0V | 00:00:00 | 00:00:00 | 00:00:00 | |
| LZ4TU-5 | 2026-09-02 23:47:49 | 44.26679 | 22.82302 | 52° | 139km/h | 11904m | 7.6m/s | -55.1°C | 31.3% | 0hPa | 0V | 00:00:00 | 00:00:00 | 00:00:00 | |
| LZ4TU-5 | 2026-09-02 23:47:43 | 44.26587 | 22.82084 | 67° | 110km/h | 11867m | 7.1m/s | -54.9°C | 33.1% | 0hPa | 0V | 00:00:00 | 00:00:00 | 00:00:00 | |
| LZ4TU-5 | 2026-09-02 23:47:39 | 44.26516 | 22.81936 | 54° | 135km/h | 11834m | 7.1m/s | -55.1°C | 34.7% | 0hPa | 0V | 00:00:00 | 00:00:00 | 00:00:00 | |
| LZ4TU-5 | 2026-09-02 23:45:51 | 44.24393 | 22.78084 | 49° | 133km/h | 11154m | 5.3m/s | -52.8°C | 59.8% | 0hPa | 0V | 00:00:00 | 00:00:00 | 00:00:00 | |
| LZ4TU-5 | 2026-09-02 23:45:46 | 44.24282 | 22.77910 | 55° | 130km/h | 11125m | 5.2m/s | -52.5°C | 58.8% | 0hPa | 0V | 00:00:00 | 00:00:00 | 00:00:00 | |
| LZ4TU-5 | 2026-09-02 23:45:38 | 44.24133 | 22.77625 | 49° | 133km/h | 11083m | 4.8m/s | -52.1°C | 57.4% | 0hPa | 0V | 00:00:00 | 00:00:00 | 00:00:00 | |
| LZ4TU-5 | 2026-09-02 23:45:33 | 44.24034 | 22.77464 | 62° | 126km/h | 11057m | 5.9m/s | -51.9°C | 56.9% | 0hPa | 0V | 00:00:00 | 00:00:00 | 00:00:00 | |
| LZ4TU-5 | 2026-09-02 23:45:29 | 44.23968 | 22.77292 | 58° | 135km/h | 11037m | 4.0m/s | -51.7°C | 56.6% | 0hPa | 0V | 00:00:00 | 00:00:00 | 00:00:00 | |
| LZ4TU-5 | 2026-09-02 23:45:24 | 44.23862 | 22.77102 | 57° | 142km/h | 11001m | 6.2m/s | -51.4°C | 56.4% | 0hPa | 0V | 00:00:00 | 00:00:00 | 00:00:00 | |
| LZ4TU-5 | 2026-09-02 23:45:19 | 44.23789 | 22.76902 | 63° | 115km/h | 10968m | 9.1m/s | -51.5°C | 57.2% | 0hPa | 0V | 00:00:00 | 00:00:00 | 00:00:00 | |
| LZ4TU-5 | 2026-09-02 23:27:03 | 44.21373 | 22.56039 | 144° | 29km/h | 4387m | 6.0m/s | -3.4°C | 30.6% | 0hPa | 0V | 00:00:00 | 00:00:00 | 00:00:00 | |
| LZ4TU-5 | 2026-09-02 23:26:58 | 44.21400 | 22.55990 | 125° | 33km/h | 4356m | 5.7m/s | -3.3°C | 32.0% | 0hPa | 0V | 00:00:00 | 00:00:00 | 00:00:00 | |
| LZ4TU-5 | 2026-09-02 23:25:07 | 44.22130 | 22.54972 | 129° | 40km/h | 3693m | 5.7m/s | -0.2°C | 52.2% | 0hPa | 0V | 00:00:00 | 00:00:00 | 00:00:00 | |
| LZ4TU-5 | 2026-09-02 23:25:02 | 44.22163 | 22.54929 | 133° | 38km/h | 3661m | 5.9m/s | 0.1°C | 50.4% | 0hPa | 0V | 00:00:00 | 00:00:00 | 00:00:00 | |
| LZ4TU-5 | 2026-09-02 23:23:52 | 44.22477 | 22.54334 | 121° | 31km/h | 3249m | 7.3m/s | 1.9°C | 77.1% | 0hPa | 0V | 00:00:00 | 00:00:00 | 00:00:00 | |
| LZ4TU-5 | 2026-09-02 23:23:47 | 44.22490 | 22.54297 | 129° | 26km/h | 3217m | 6.2m/s | 2.2°C | 0% | 0hPa | 0V | 00:00:00 | 00:00:00 | 00:00:00 | |
| LZ4TU-5 | 2026-09-02 23:22:37 | 44.22626 | 22.53792 | 104° | 13km/h | 2783m | 6.1m/s | 6.3°C | 51.6% | 0hPa | 0V | 00:00:00 | 00:00:00 | 00:00:00 | |
| LZ4TU-5 | 2026-09-02 23:22:33 | 44.22636 | 22.53770 | 105° | 35km/h | 2759m | 6.3m/s | 6.5°C | 51.2% | 0hPa | 0V | 00:00:00 | 00:00:00 | 00:00:00 | |
| LZ4TU-5 | 2026-09-02 23:21:23 | 44.22748 | 22.53302 | 108° | 13km/h | 2326m | 5.4m/s | 10.4°C | 36.0% | 0hPa | 0V | 00:00:00 | 00:00:00 | 00:00:00 | |
| LZ4TU-5 | 2026-09-02 23:20:09 | 44.22853 | 22.53056 | 148° | 13km/h | 1899m | 6.2m/s | 13.4°C | 43.9% | 0hPa | 0V | 00:00:00 | 00:00:00 | 00:00:00 | |
| LZ4TU-5 | 2026-09-02 23:20:04 | 44.22861 | 22.53047 | 112° | 11km/h | 1868m | 6.8m/s | 13.6°C | 43.6% | 0hPa | 0V | 00:00:00 | 00:00:00 | 00:00:00 | |
| LZ4TU-5 | 2026-09-02 23:18:53 | 44.22994 | 22.53086 | 207° | 9km/h | 1439m | 5.4m/s | 17.3°C | 33.7% | 0hPa | 0V | 00:00:00 | 00:00:00 | 00:00:00 | |
| LZ4TU-5 | 2026-09-02 23:18:48 | 44.23011 | 22.53103 | 220° | 16km/h | 1409m | 5.4m/s | 17.5°C | 33.5% | 0hPa | 0V | 00:00:00 | 00:00:00 | 00:00:00 | |
| LZ4TU-5 | 2026-09-02 23:17:35 | 44.23323 | 22.53454 | 205° | 20km/h | 955m | 7.3m/s | 20.8°C | 34.7% | 0hPa | 0V | 00:00:00 | 00:00:00 | 00:00:00 | |
| LZ4TU-5 | 2026-09-02 23:17:30 | 44.23339 | 22.53475 | 216° | 18km/h | 921m | 6.5m/s | 21.1°C | 0% | 0hPa | 0V | 00:00:00 | 00:00:00 | 00:00:00 | |
| LZ4TU-5 | 2026-09-02 23:16:20 | 44.23619 | 22.53712 | 217° | 18km/h | 496m | 6.2m/s | 24.1°C | 33.9% | 0hPa | 0V | 00:00:00 | 00:00:00 | 00:00:00 | |
| LZ4TU-5 | 2026-09-02 23:16:15 | 44.23638 | 22.53720 | 203° | 16km/h | 465m | 6.7m/s | 24.0°C | 34.4% | 0hPa | 0V | 00:00:00 | 00:00:00 | 00:00:00 |